createdAt,value
2018-11-14T00:00:30.655Z,32.67
2018-11-14T00:03:34.720Z,25.23
2018-11-14T00:06:39.182Z,23.37
2018-11-14T00:09:43.137Z,29.47
2018-11-14T00:12:47.215Z,22.63
2018-11-14T00:15:51.137Z,28.60
2018-11-14T00:18:55.475Z,22.03
2018-11-14T00:21:59.435Z,31.63
2018-11-14T00:25:04.197Z,31.97
2018-11-14T00:28:15.097Z,39.07
2018-11-14T00:31:19.182Z,30.40
2018-11-14T00:34:23.341Z,28.33
2018-11-14T00:37:27.854Z,30.47
2018-11-14T00:40:32.395Z,28.93
2018-11-14T00:43:36.386Z,33.83
2018-11-14T00:46:40.424Z,30.80
2018-11-14T00:49:44.446Z,27.37
2018-11-14T00:52:48.695Z,33.90
2018-11-14T00:55:52.929Z,26.93
2018-11-14T00:58:57.230Z,27.27
2018-11-14T01:02:02.548Z,26.50
2018-11-14T01:05:07.621Z,25.17
2018-11-14T01:08:11.571Z,21.07
2018-11-14T01:11:15.514Z,22.97
2018-11-14T01:14:19.704Z,23.07
2018-11-14T01:17:23.669Z,23.20
2018-11-14T01:20:27.613Z,20.33
2018-11-14T01:23:31.678Z,23.40
2018-11-14T01:26:35.580Z,21.83
2018-11-14T01:29:39.540Z,27.83
2018-11-14T01:32:44.739Z,24.00
2018-11-14T01:35:48.762Z,25.63
2018-11-14T01:38:52.813Z,20.13
2018-11-14T01:41:56.831Z,22.20
2018-11-14T01:45:06.974Z,20.83
2018-11-14T01:48:10.909Z,20.53
2018-11-14T01:51:14.922Z,20.60
2018-11-14T01:54:19.144Z,24.33
2018-11-14T01:57:23.489Z,20.43
2018-11-14T02:00:27.425Z,16.07
2018-11-14T02:03:31.348Z,19.90
2018-11-14T02:06:35.330Z,18.43
2018-11-14T02:09:39.351Z,18.27
2018-11-14T02:12:44.183Z,16.00
2018-11-14T02:15:48.414Z,19.47
2018-11-14T02:18:52.541Z,17.07
2018-11-14T02:21:56.894Z,19.80
2018-11-14T02:25:01.219Z,18.53
2018-11-14T02:28:05.867Z,17.30
2018-11-14T02:31:10.076Z,20.10
2018-11-14T02:34:14.278Z,18.60
2018-11-14T02:37:18.261Z,19.33
2018-11-14T02:40:23.019Z,21.70
2018-11-14T02:43:27.111Z,16.80
2018-11-14T02:46:31.030Z,16.77
2018-11-14T02:49:34.985Z,17.03
2018-11-14T02:52:39.154Z,17.30
2018-11-14T02:55:43.596Z,15.97
2018-11-14T02:58:47.685Z,16.77
2018-11-14T03:01:52.240Z,13.90
2018-11-14T03:04:56.158Z,19.37
2018-11-14T03:08:00.487Z,17.20
2018-11-14T03:11:04.483Z,17.40
2018-11-14T03:14:09.050Z,15.60
2018-11-14T03:17:13.312Z,16.23
2018-11-14T03:20:19.007Z,15.63
2018-11-14T03:23:23.278Z,13.90
2018-11-14T03:26:27.790Z,14.77
2018-11-14T03:29:32.131Z,16.60
2018-11-14T03:32:36.530Z,16.00
2018-11-14T03:35:45.978Z,15.87
2018-11-14T03:38:50.523Z,18.43
2018-11-14T03:41:54.761Z,15.80
2018-11-14T03:44:59.017Z,17.27
2018-11-14T03:48:03.321Z,14.63
2018-11-14T03:51:07.688Z,15.80
2018-11-14T03:54:12.027Z,13.73
2018-11-14T03:57:16.210Z,14.07
2018-11-14T04:00:20.559Z,15.17
2018-11-14T04:03:25.182Z,14.93
2018-11-14T04:06:29.422Z,15.27
2018-11-14T04:09:34.020Z,13.43
2018-11-14T04:12:38.395Z,14.07
2018-11-14T04:15:42.764Z,12.00
2018-11-14T04:18:47.063Z,14.23
2018-11-14T04:21:51.411Z,11.63
2018-11-14T04:24:55.766Z,12.67
2018-11-14T04:28:00.179Z,12.47
2018-11-14T04:31:04.438Z,15.13
2018-11-14T04:34:09.092Z,12.03
2018-11-14T04:37:13.356Z,13.30
2018-11-14T04:40:19.337Z,12.33
2018-11-14T04:43:23.545Z,14.30
2018-11-14T04:46:28.015Z,11.73
2018-11-14T04:49:32.364Z,15.23
2018-11-14T04:52:36.659Z,13.47
2018-11-14T04:55:40.834Z,11.17
2018-11-14T04:58:45.337Z,13.07
2018-11-14T05:01:49.485Z,21.43
2018-11-14T05:04:53.931Z,17.37
2018-11-14T05:07:58.261Z,13.13
2018-11-14T05:11:02.512Z,16.70
2018-11-14T05:14:07.379Z,14.90
2018-11-14T05:17:11.744Z,13.33
2018-11-14T05:20:17.070Z,13.30
2018-11-14T05:23:21.594Z,15.20
2018-11-14T05:26:26.078Z,14.30
2018-11-14T05:29:30.362Z,13.30
2018-11-14T05:32:37.366Z,14.17
2018-11-14T05:35:41.808Z,15.43
2018-11-14T05:38:46.096Z,14.30
2018-11-14T05:41:50.235Z,14.70
2018-11-14T05:44:54.408Z,16.40
2018-11-14T05:47:58.629Z,14.80
2018-11-14T05:51:03.079Z,14.33
2018-11-14T05:54:07.411Z,14.53
2018-11-14T05:57:11.715Z,12.00
2018-11-14T06:00:24.134Z,15.30
2018-11-14T06:03:28.609Z,12.23
2018-11-14T06:06:32.781Z,13.77
2018-11-14T06:09:37.089Z,16.63
2018-11-14T06:12:47.825Z,16.37
2018-11-14T06:15:52.088Z,14.37
2018-11-14T06:18:56.428Z,12.70
2018-11-14T06:22:01.145Z,12.70
2018-11-14T06:25:16.166Z,18.20
2018-11-14T06:28:20.500Z,14.57
2018-11-14T06:31:24.819Z,15.90
2018-11-14T06:34:28.962Z,13.50
2018-11-14T06:37:33.328Z,15.20
2018-11-14T06:40:37.610Z,15.33
2018-11-14T06:43:42.084Z,17.03
2018-11-14T06:46:46.478Z,11.50
2018-11-14T06:49:51.114Z,13.30
2018-11-14T06:52:56.931Z,15.47
2018-11-14T06:56:01.167Z,12.05
2018-11-14T06:59:05.664Z,13.73
2018-11-14T07:02:10.177Z,11.97
2018-11-14T07:05:15.915Z,16.30
2018-11-14T07:08:20.978Z,12.83
2018-11-14T07:11:25.296Z,13.87
2018-11-14T07:14:29.472Z,13.43
2018-11-14T07:17:33.818Z,18.07
2018-11-14T07:20:40.185Z,13.97
2018-11-14T07:23:44.297Z,15.37
2018-11-14T07:26:48.606Z,12.00
2018-11-14T07:29:53.344Z,13.20
2018-11-14T07:32:58.987Z,10.87
2018-11-14T07:36:03.320Z,10.90
2018-11-14T07:39:10.065Z,9.67
2018-11-14T07:42:14.818Z,11.10
2018-11-14T07:45:19.429Z,11.33
2018-11-14T07:48:23.908Z,9.93
2018-11-14T07:51:28.917Z,11.37
2018-11-14T07:54:33.729Z,14.50
2018-11-14T07:57:38.217Z,13.33
2018-11-14T08:00:42.382Z,13.23
2018-11-14T08:03:46.915Z,13.17
2018-11-14T08:06:52.006Z,12.77
2018-11-14T08:09:56.221Z,14.47
2018-11-14T08:13:00.547Z,13.00
2018-11-14T08:16:05.299Z,13.20
2018-11-14T08:19:09.732Z,15.43
2018-11-14T08:22:14.105Z,12.00
2018-11-14T08:25:18.868Z,13.30
2018-11-14T08:28:23.321Z,12.33
2018-11-14T08:31:27.670Z,16.63
2018-11-14T08:34:32.192Z,14.40
2018-11-14T08:37:36.426Z,16.93
2018-11-14T08:40:40.962Z,16.60
2018-11-14T08:43:45.109Z,13.97
2018-11-14T08:46:49.375Z,18.20
2018-11-14T08:49:53.695Z,14.13
2018-11-14T08:52:58.035Z,13.70
2018-11-14T08:56:02.038Z,15.00
2018-11-14T08:59:06.426Z,18.60
2018-11-14T09:02:10.481Z,17.27
2018-11-14T09:05:14.741Z,21.80
2018-11-14T09:08:19.096Z,24.37
2018-11-14T09:11:23.615Z,21.53
2018-11-14T09:14:27.715Z,22.23
2018-11-14T09:17:31.899Z,22.10
2018-11-14T09:20:36.154Z,21.00
2018-11-14T09:23:40.669Z,22.13
2018-11-14T09:26:45.000Z,22.07
2018-11-14T09:29:49.417Z,24.67
2018-11-14T09:32:54.565Z,22.97
2018-11-14T09:35:58.737Z,24.30
2018-11-14T09:39:02.996Z,24.73
2018-11-14T09:42:06.996Z,22.73
2018-11-14T09:45:13.089Z,22.13
2018-11-14T09:48:17.058Z,19.53
2018-11-14T09:51:21.403Z,20.93
2018-11-14T09:54:25.307Z,19.73
2018-11-14T09:57:29.715Z,15.60
2018-11-14T10:00:34.719Z,16.87
2018-11-14T10:03:38.738Z,19.70
2018-11-14T10:06:43.023Z,21.00
2018-11-14T10:09:47.467Z,17.00
2018-11-14T10:12:51.456Z,21.33
2018-11-14T10:15:55.641Z,21.07
2018-11-14T10:18:59.877Z,18.43
2018-11-14T10:22:04.369Z,18.30
2018-11-14T10:25:08.252Z,18.17
2018-11-14T10:28:12.431Z,21.40
2018-11-14T10:31:16.361Z,19.03
2018-11-14T10:34:20.655Z,17.80
2018-11-14T10:37:24.523Z,21.33
2018-11-14T10:40:29.143Z,19.63
2018-11-14T10:43:33.428Z,16.30
2018-11-14T10:46:37.382Z,17.67
2018-11-14T10:49:41.354Z,14.80
2018-11-14T10:52:45.536Z,17.90
2018-11-14T10:55:50.018Z,16.07
2018-11-14T10:58:54.887Z,16.67
2018-11-14T11:02:04.239Z,16.97
2018-11-14T11:05:14.237Z,18.70
2018-11-14T11:08:26.168Z,20.07
2018-11-14T11:11:34.285Z,17.80
2018-11-14T11:14:43.176Z,18.60
2018-11-14T11:17:52.595Z,18.80
2018-11-14T11:20:56.551Z,18.10
2018-11-14T11:24:00.525Z,18.30
2018-11-14T11:27:04.742Z,16.37
2018-11-14T11:30:10.410Z,17.43
2018-11-14T11:33:14.279Z,16.30
2018-11-14T11:36:18.201Z,17.27
2018-11-14T11:39:22.470Z,17.27
2018-11-14T11:42:26.499Z,15.80
2018-11-14T11:45:30.825Z,15.20
2018-11-14T11:48:34.938Z,16.90
2018-11-14T11:51:38.874Z,15.13
2018-11-14T11:54:42.968Z,15.67
2018-11-14T11:57:47.194Z,17.20
2018-11-14T12:00:51.529Z,15.00
2018-11-14T12:03:56.529Z,15.80
2018-11-14T12:07:00.787Z,15.47
2018-11-14T12:10:05.428Z,14.70
2018-11-14T12:13:09.629Z,16.10
2018-11-14T12:16:13.560Z,15.00
2018-11-14T12:19:17.664Z,13.57
2018-11-14T12:22:21.572Z,14.93
2018-11-14T12:25:25.653Z,13.90
2018-11-14T12:28:29.557Z,13.07
2018-11-14T12:31:33.490Z,14.60
2018-11-14T12:34:37.477Z,14.07
2018-11-14T12:37:42.067Z,15.37
2018-11-14T12:40:46.393Z,14.30
2018-11-14T12:43:50.714Z,14.67
2018-11-14T12:46:54.642Z,15.63
2018-11-14T12:49:58.606Z,13.67
2018-11-14T12:53:03.321Z,15.88
2018-11-14T12:56:07.454Z,17.00
2018-11-14T12:59:11.366Z,14.57
2018-11-14T13:02:15.760Z,13.83
2018-11-14T13:05:19.726Z,14.80
2018-11-14T13:08:23.702Z,17.00
2018-11-14T13:11:27.611Z,15.20
2018-11-14T13:14:32.011Z,15.83
2018-11-14T13:17:35.948Z,15.70
2018-11-14T13:20:39.894Z,16.50
2018-11-14T13:23:44.004Z,15.13
2018-11-14T13:26:48.362Z,16.77
2018-11-14T13:29:52.830Z,16.77
2018-11-14T13:32:56.972Z,16.70
2018-11-14T13:36:01.238Z,17.93
2018-11-14T13:39:07.737Z,16.70
2018-11-14T13:42:11.621Z,16.43
2018-11-14T13:45:17.466Z,17.00
2018-11-14T13:48:21.341Z,15.97
2018-11-14T13:51:25.730Z,18.80
2018-11-14T13:54:30.127Z,18.93
2018-11-14T13:57:34.411Z,19.10
2018-11-14T14:00:38.328Z,16.63
2018-11-14T14:03:42.699Z,16.83
2018-11-14T14:06:46.997Z,18.00
2018-11-14T14:09:50.919Z,21.67
2018-11-14T14:12:55.292Z,16.93
2018-11-14T14:15:59.639Z,17.40
2018-11-14T14:19:03.923Z,16.20
2018-11-14T14:22:08.311Z,16.67
2018-11-14T14:25:13.692Z,19.60
2018-11-14T14:28:17.874Z,18.90
2018-11-14T14:31:22.009Z,18.27
2018-11-14T14:34:25.934Z,19.17
2018-11-14T14:37:30.410Z,18.13
2018-11-14T14:40:34.765Z,16.40
2018-11-14T14:43:38.696Z,17.13
2018-11-14T14:46:42.836Z,18.67
2018-11-14T14:49:46.763Z,18.00
2018-11-14T14:52:51.172Z,18.83
2018-11-14T14:55:55.414Z,17.73
2018-11-14T14:58:59.554Z,18.57
2018-11-14T15:02:04.150Z,17.10
2018-11-14T15:05:09.112Z,18.70
2018-11-14T15:08:13.455Z,18.93
2018-11-14T15:11:17.376Z,17.67
2018-11-14T15:14:21.400Z,21.70
2018-11-14T15:17:25.403Z,18.17
2018-11-14T15:20:29.362Z,17.07
2018-11-14T15:23:33.691Z,17.87
2018-11-14T15:26:37.696Z,17.00
2018-11-14T15:29:42.147Z,18.00
2018-11-14T15:32:46.483Z,18.30
2018-11-14T15:35:50.903Z,18.07
2018-11-14T15:38:55.112Z,18.30
2018-11-14T15:41:59.518Z,20.07
2018-11-14T15:45:03.662Z,21.70
2018-11-14T15:48:08.082Z,20.13
2018-11-14T15:51:15.471Z,17.17
2018-11-14T15:54:19.757Z,19.70
2018-11-14T15:57:24.145Z,20.63
2018-11-14T16:00:29.250Z,19.13
2018-11-14T16:03:33.522Z,19.00
2018-11-14T16:06:37.948Z,20.33
2018-11-14T16:09:42.192Z,19.23
2018-11-14T16:12:46.712Z,19.30
2018-11-14T16:15:51.127Z,19.17
2018-11-14T16:18:55.724Z,16.53
2018-11-14T16:21:59.735Z,15.47
2018-11-14T16:25:04.446Z,16.83
2018-11-14T16:28:08.702Z,16.23
2018-11-14T16:31:12.684Z,17.60
2018-11-14T16:34:19.914Z,20.20
2018-11-14T16:37:24.183Z,18.00
2018-11-14T16:40:30.740Z,15.43
2018-11-14T16:43:35.256Z,17.47
2018-11-14T16:46:39.788Z,17.70
2018-11-14T16:49:44.015Z,17.23
2018-11-14T16:52:48.399Z,21.27
2018-11-14T16:55:52.538Z,21.00
2018-11-14T16:58:56.398Z,18.40
2018-11-14T17:02:00.780Z,18.83
2018-11-14T17:05:06.438Z,19.37
2018-11-14T17:08:10.670Z,14.77
2018-11-14T17:11:15.369Z,17.27
2018-11-14T17:14:19.811Z,17.30
2018-11-14T17:17:23.669Z,23.60
2018-11-14T17:20:28.022Z,21.13
2018-11-14T17:23:32.296Z,21.13
2018-11-14T17:26:36.476Z,20.60
2018-11-14T17:29:40.448Z,25.23
2018-11-14T17:32:44.575Z,18.67
2018-11-14T17:35:48.916Z,23.30
2018-11-14T17:38:52.946Z,24.87
2018-11-14T17:41:57.434Z,21.93
2018-11-14T17:45:01.656Z,21.20
2018-11-14T17:48:06.821Z,21.63
2018-11-14T17:51:10.810Z,19.10
2018-11-14T17:54:15.090Z,19.00
2018-11-14T17:57:19.025Z,25.17
2018-11-14T18:00:25.444Z,25.97
2018-11-14T18:03:29.628Z,23.00
2018-11-14T18:06:34.005Z,20.20
2018-11-14T18:09:38.178Z,19.13
2018-11-14T18:12:42.888Z,20.87
2018-11-14T18:15:47.257Z,20.03
2018-11-14T18:18:51.432Z,24.57
2018-11-14T18:21:55.789Z,20.20
2018-11-14T18:24:59.780Z,19.27
2018-11-14T18:28:04.036Z,18.20
2018-11-14T18:31:08.596Z,22.73
2018-11-14T18:34:13.107Z,17.20
2018-11-14T18:37:17.450Z,17.90
2018-11-14T18:40:23.151Z,18.43
2018-11-14T18:43:27.431Z,18.50
2018-11-14T18:46:31.832Z,18.73
2018-11-14T18:49:36.443Z,21.83
2018-11-14T18:52:40.647Z,23.23
2018-11-14T18:55:44.805Z,18.23
2018-11-14T18:58:49.100Z,21.30
2018-11-14T19:01:53.699Z,21.77
2018-11-14T19:04:58.047Z,24.30
2018-11-14T19:08:02.345Z,22.80
2018-11-14T19:11:06.902Z,28.73
2018-11-14T19:14:10.854Z,20.40
2018-11-14T19:17:15.255Z,18.30
2018-11-14T19:20:20.861Z,22.30
2018-11-14T19:23:25.231Z,23.40
2018-11-14T19:26:29.682Z,19.20
2018-11-14T19:29:34.109Z,19.60
2018-11-14T19:32:38.392Z,25.40
2018-11-14T19:35:42.784Z,22.60
2018-11-14T19:38:47.227Z,22.90
2018-11-14T19:41:51.731Z,25.33
2018-11-14T19:44:56.231Z,19.87
2018-11-14T19:48:00.513Z,19.73
2018-11-14T19:51:05.448Z,20.07
2018-11-14T19:54:10.233Z,20.77
2018-11-14T19:57:14.270Z,19.63
2018-11-14T20:00:21.880Z,22.77
2018-11-14T20:03:26.205Z,23.70
2018-11-14T20:06:30.514Z,19.67
2018-11-14T20:09:34.428Z,24.10
2018-11-14T20:12:39.017Z,21.00
2018-11-14T20:15:43.311Z,19.87
2018-11-14T20:18:47.320Z,20.80
2018-11-14T20:21:51.716Z,26.40
2018-11-14T20:24:56.139Z,21.57
2018-11-14T20:28:00.558Z,22.30
2018-11-14T20:31:05.088Z,19.60
2018-11-14T20:34:09.099Z,19.30
2018-11-14T20:37:13.435Z,19.83
2018-11-14T20:40:18.974Z,24.60
2018-11-14T20:43:23.002Z,19.60
2018-11-14T20:46:27.596Z,18.30
2018-11-14T20:49:32.926Z,17.83
2018-11-14T20:52:37.405Z,22.63
2018-11-14T20:55:41.875Z,21.87
2018-11-14T20:58:46.026Z,19.17
2018-11-14T21:01:50.672Z,25.80
2018-11-14T21:04:54.939Z,19.03
2018-11-14T21:07:59.357Z,21.57
2018-11-14T21:11:03.575Z,18.63
2018-11-14T21:14:08.157Z,21.93
2018-11-14T21:17:12.473Z,17.77
2018-11-14T21:20:16.868Z,18.13
2018-11-14T21:23:20.823Z,16.53
2018-11-14T21:26:25.078Z,18.93
2018-11-14T21:29:30.161Z,17.97
2018-11-14T21:32:34.433Z,19.40
2018-11-14T21:35:38.811Z,19.70
2018-11-14T21:38:44.056Z,19.30
2018-11-14T21:41:48.430Z,20.10
2018-11-14T21:44:52.498Z,20.43
2018-11-14T21:48:02.334Z,23.00
2018-11-14T21:51:06.644Z,19.77
2018-11-14T21:54:11.496Z,18.70
2018-11-14T21:57:15.843Z,24.53
2018-11-14T22:00:37.487Z,21.20
2018-11-14T22:03:41.539Z,22.43
2018-11-14T22:06:45.591Z,20.10
2018-11-14T22:09:50.030Z,23.33
2018-11-14T22:12:54.079Z,19.70
2018-11-14T22:15:58.007Z,19.07
2018-11-14T22:19:02.981Z,19.67
2018-11-14T22:22:07.277Z,22.47
2018-11-14T22:25:12.478Z,22.23
2018-11-14T22:28:16.850Z,21.70
2018-11-14T22:31:21.223Z,18.83
2018-11-14T22:34:25.480Z,20.40
2018-11-14T22:37:29.750Z,17.70
2018-11-14T22:40:34.466Z,19.60
2018-11-14T22:43:38.781Z,18.53
2018-11-14T22:46:43.185Z,23.90
2018-11-14T22:49:47.902Z,19.30
2018-11-14T22:52:52.716Z,21.57
2018-11-14T22:55:57.133Z,19.90
2018-11-14T22:59:01.054Z,20.63
2018-11-14T23:02:05.760Z,20.40
2018-11-14T23:05:10.171Z,18.97
2018-11-14T23:08:14.183Z,19.70
2018-11-14T23:11:18.124Z,18.67
2018-11-14T23:14:22.197Z,19.83
2018-11-14T23:17:26.418Z,21.87
2018-11-14T23:20:30.748Z,18.00
2018-11-14T23:23:34.733Z,22.20
2018-11-14T23:26:38.979Z,18.37
2018-11-14T23:29:43.365Z,21.93
2018-11-14T23:32:49.452Z,21.20
2018-11-14T23:35:53.861Z,22.97
2018-11-14T23:38:58.298Z,20.67
2018-11-14T23:42:02.569Z,22.10
2018-11-14T23:45:08.741Z,21.50
2018-11-14T23:48:13.039Z,20.60
2018-11-14T23:51:17.091Z,20.27
2018-11-14T23:54:21.317Z,17.90
2018-11-14T23:57:25.558Z,18.93
